createdAt,value
2018-08-10T00:00:03.334Z,57.1
2018-08-10T00:00:53.336Z,57.1
2018-08-10T00:01:43.446Z,57.1
2018-08-10T00:02:33.206Z,57.1
2018-08-10T00:03:23.244Z,57.1
2018-08-10T00:04:13.611Z,57
2018-08-10T00:05:03.742Z,57
2018-08-10T00:05:53.513Z,57
2018-08-10T00:06:43.826Z,57
2018-08-10T00:07:33.898Z,57
2018-08-10T00:08:23.152Z,57
2018-08-10T00:09:14.043Z,57
2018-08-10T00:10:04.071Z,57
2018-08-10T00:10:54.145Z,57
2018-08-10T00:11:43.371Z,56.9
2018-08-10T00:12:34.238Z,56.9
2018-08-10T00:13:24.027Z,56.9
2018-08-10T00:14:14.386Z,56.9
2018-08-10T00:15:04.493Z,56.9
2018-08-10T00:15:54.295Z,56.9
2018-08-10T00:16:44.570Z,56.9
2018-08-10T00:17:34.365Z,56.9
2018-08-10T00:18:24.165Z,56.9
2018-08-10T00:37:24.206Z,56.7
2018-08-10T00:38:14.011Z,56.7
2018-08-10T00:39:04.351Z,56.8
2018-08-10T00:39:54.409Z,56.7
2018-08-10T00:40:44.461Z,56.7
2018-08-10T00:41:33.962Z,56.7
2018-08-10T00:42:24.796Z,56.7
2018-08-10T00:43:14.661Z,56.6
2018-08-10T00:44:04.724Z,56.6
2018-08-10T00:44:54.916Z,56.6
2018-08-10T00:45:44.841Z,56.6
2018-08-10T00:46:34.943Z,56.6
2018-08-10T00:47:24.451Z,56.6
2018-08-10T00:48:15.080Z,56.6
2018-08-10T00:49:04.869Z,56.6
2018-08-10T00:49:55.341Z,56.6
2018-08-10T00:50:44.411Z,56.6
2018-08-10T00:51:35.305Z,56.6
2018-08-10T00:52:25.610Z,56.6
2018-08-10T00:53:15.166Z,56.6
2018-08-10T00:54:05.246Z,56.6
2018-08-10T00:54:55.605Z,56.6
2018-08-10T00:55:45.643Z,56.6
2018-08-10T00:56:35.154Z,56.6
2018-08-10T00:57:25.796Z,56.5
2018-08-10T00:58:15.349Z,56.5
2018-08-10T00:59:05.658Z,56.5
2018-08-10T00:59:55.994Z,56.5
2018-08-10T01:00:45.486Z,56.5
2018-08-10T01:01:35.557Z,56.5
2018-08-10T01:02:25.386Z,56.5
2018-08-10T01:03:16.224Z,56.4
2018-08-10T01:04:05.545Z,56.4
2018-08-10T01:04:55.925Z,56.4
2018-08-10T01:05:45.637Z,56.4
2018-08-10T01:06:35.987Z,56.4
2018-08-10T01:07:25.988Z,56.4
2018-08-10T01:08:15.612Z,56.4
2018-08-10T01:09:06.105Z,56.4
2018-08-10T01:09:56.533Z,56.4
2018-08-10T01:10:46.523Z,56.4
2018-08-10T01:11:36.559Z,56.4
2018-08-10T01:12:26.892Z,56.4
2018-08-10T01:13:16.973Z,56.4
2018-08-10T01:14:07.267Z,56.4
2018-08-10T01:14:56.849Z,56.4
2018-08-10T01:15:46.948Z,56.4
2018-08-10T01:16:37.427Z,56.3
2018-08-10T01:17:27.529Z,56.3
2018-08-10T01:18:17.376Z,56.3
2018-08-10T01:19:08.331Z,56.3
2018-08-10T01:19:57.503Z,56.3
2018-08-10T01:20:47.565Z,56.3
2018-08-10T01:21:37.609Z,56.3
2018-08-10T01:22:27.460Z,56.3
2018-08-10T01:23:17.764Z,56.3
2018-08-10T01:24:07.881Z,56.3
2018-08-10T01:24:57.925Z,56.3
2018-08-10T01:25:47.965Z,56.3
2018-08-10T01:26:38.020Z,56.3
2018-08-10T01:27:28.052Z,56.3
2018-08-10T01:28:17.860Z,56.3
2018-08-10T01:29:07.669Z,56.3
2018-08-10T01:29:58.243Z,56.3
2018-08-10T01:30:48.051Z,56.2
2018-08-10T01:31:38.437Z,56.2
2018-08-10T01:32:28.210Z,56.2
2018-08-10T01:33:18.295Z,56.2
2018-08-10T01:34:08.631Z,56.2
2018-08-10T01:34:58.793Z,56.2
2018-08-10T01:35:48.204Z,56.2
2018-08-10T01:36:38.523Z,56.1
2018-08-10T01:37:28.383Z,56.1
2018-08-10T01:38:19.160Z,56.1
2018-08-10T01:39:09.009Z,56.1
2018-08-10T01:41:38.925Z,56.1
2018-08-10T01:42:28.976Z,56.1
2018-08-10T01:43:19.035Z,56.1
2018-08-10T01:44:09.086Z,56.1
2018-08-10T01:44:59.424Z,56.1
2018-08-10T01:45:49.475Z,56.1
2018-08-10T01:46:38.453Z,56.1
2018-08-10T01:47:29.314Z,56.1
2018-08-10T01:48:19.391Z,56.1
2018-08-10T01:49:09.722Z,56.1
2018-08-10T01:49:59.809Z,56.1
2018-08-10T01:50:50.129Z,56
2018-08-10T01:51:39.867Z,56
2018-08-10T01:52:29.755Z,56
2018-08-10T01:53:20.076Z,56
2018-08-10T01:54:09.836Z,56
2018-08-10T01:54:59.635Z,56
2018-08-10T01:56:04.999Z,56
2018-08-10T01:56:40.311Z,56
2018-08-10T01:57:30.093Z,56
2018-08-10T01:58:20.477Z,55.9
2018-08-10T01:59:10.003Z,55.9
2018-08-10T01:59:59.746Z,55.9
2018-08-10T02:00:49.835Z,55.9
2018-08-10T02:01:40.466Z,55.9
2018-08-10T02:02:30.246Z,55.9
2018-08-10T02:03:20.025Z,55.9
2018-08-10T02:04:10.651Z,55.9
2018-08-10T02:05:01.039Z,55.9
2018-08-10T02:05:51.100Z,55.9
2018-08-10T02:06:41.177Z,55.9
2018-08-10T02:07:30.927Z,55.9
2018-08-10T02:08:20.694Z,55.9
2018-08-10T02:09:10.774Z,55.9
2018-08-10T02:10:01.383Z,55.9
2018-08-10T02:10:51.479Z,55.8
2018-08-10T02:11:41.514Z,55.8
2018-08-10T02:12:31.407Z,55.8
2018-08-10T02:13:21.069Z,55.8
2018-08-10T02:14:11.970Z,55.8
2018-08-10T02:15:01.983Z,55.8
2018-08-10T02:15:52.201Z,55.8
2018-08-10T02:16:41.600Z,55.8
2018-08-10T02:17:31.367Z,55.8
2018-08-10T02:18:21.994Z,55.8
2018-08-10T02:19:12.225Z,55.8
2018-08-10T02:20:02.126Z,55.8
2018-08-10T02:20:52.265Z,55.8
2018-08-10T02:21:42.226Z,55.8
2018-08-10T02:22:32.359Z,55.8
2018-08-10T02:23:22.366Z,55.8
2018-08-10T02:24:12.434Z,55.8
2018-08-10T02:25:02.535Z,55.7
2018-08-10T02:25:52.315Z,55.7
2018-08-10T02:26:42.633Z,55.7
2018-08-10T02:27:32.522Z,55.7
2018-08-10T02:28:22.546Z,55.7
2018-08-10T02:29:12.285Z,55.7
2018-08-10T02:30:02.918Z,55.7
2018-08-10T02:30:53.195Z,55.7
2018-08-10T02:31:43.074Z,55.6
2018-08-10T02:32:32.871Z,55.6
2018-08-10T02:33:23.124Z,55.7
2018-08-10T02:34:12.644Z,55.6
2018-08-10T02:35:02.760Z,55.6
2018-08-10T02:35:53.180Z,55.6
2018-08-10T02:36:42.840Z,55.6
2018-08-10T02:37:33.532Z,55.6
2018-08-10T02:38:23.591Z,55.6
2018-08-10T02:39:13.359Z,55.6
2018-08-10T02:40:03.197Z,55.6
2018-08-10T02:40:53.227Z,55.6
2018-08-10T02:41:43.115Z,55.6
2018-08-10T02:42:33.937Z,55.6
2018-08-10T02:43:23.516Z,55.6
2018-08-10T02:44:13.270Z,55.6
2018-08-10T02:45:04.034Z,55.5
2018-08-10T02:45:53.397Z,55.6
2018-08-10T02:46:43.916Z,55.5
2018-08-10T02:47:33.798Z,55.5
2018-08-10T02:48:23.326Z,55.5
2018-08-10T02:49:13.940Z,55.5
2018-08-10T02:50:03.731Z,55.5
2018-08-10T02:50:53.763Z,55.5
2018-08-10T02:51:43.673Z,55.5
2018-08-10T02:52:33.423Z,55.5
2018-08-10T02:53:23.536Z,55.4
2018-08-10T02:54:13.564Z,55.4
2018-08-10T02:55:04.411Z,55.4
2018-08-10T02:55:54.461Z,55.4
2018-08-10T02:56:44.951Z,55.4
2018-08-10T02:57:35.020Z,55.4
2018-08-10T02:58:25.296Z,55.4
2018-08-10T02:59:15.126Z,55.4
2018-08-10T03:00:04.427Z,55.4
2018-08-10T03:00:54.191Z,55.4
2018-08-10T03:01:45.194Z,55.4
2018-08-10T03:02:34.599Z,55.4
2018-08-10T03:03:25.244Z,55.4
2018-08-10T03:04:15.286Z,55.4
2018-08-10T03:05:05.108Z,55.4
2018-08-10T03:05:55.140Z,55.4
2018-08-10T03:06:45.511Z,55.3
2018-08-10T03:07:35.818Z,55.4
2018-08-10T03:08:25.338Z,55.3
2018-08-10T03:09:15.687Z,55.3
2018-08-10T03:10:05.972Z,55.3
2018-08-10T03:10:55.558Z,55.3
2018-08-10T03:11:45.892Z,55.3
2018-08-10T03:12:36.201Z,55.3
2018-08-10T03:13:25.774Z,55.3
2018-08-10T03:14:16.042Z,55.3
2018-08-10T03:15:06.412Z,55.3
2018-08-10T03:16:11.147Z,55.3
2018-08-10T03:16:46.125Z,55.3
2018-08-10T03:17:36.354Z,55.3
2018-08-10T03:18:26.138Z,55.3
2018-08-10T03:19:16.761Z,55.3
2018-08-10T03:20:06.818Z,55.3
2018-08-10T03:20:56.356Z,55.3
2018-08-10T03:21:47.069Z,55.2
2018-08-10T03:22:36.563Z,55.2
2018-08-10T03:23:26.820Z,55.2
2018-08-10T03:24:16.850Z,55.2
2018-08-10T03:25:06.741Z,55.2
2018-08-10T03:25:57.516Z,55.2
2018-08-10T03:26:46.959Z,55.2
2018-08-10T03:27:36.683Z,55.2
2018-08-10T03:28:26.938Z,55.1
2018-08-10T03:29:16.774Z,55.2
2018-08-10T03:30:07.371Z,55.1
2018-08-10T03:30:56.611Z,55.1
2018-08-10T03:31:47.016Z,55.1
2018-08-10T03:32:37.523Z,55.1
2018-08-10T03:33:27.807Z,55.1
2018-08-10T03:34:17.594Z,55.1
2018-08-10T03:35:07.965Z,55.1
2018-08-10T03:35:58.002Z,55.1
2018-08-10T03:36:48.072Z,55.1
2018-08-10T03:37:37.742Z,55.1
2018-08-10T03:38:28.212Z,55.1
2018-08-10T03:39:17.255Z,55.1
2018-08-10T03:40:07.842Z,55.1
2018-08-10T03:40:57.647Z,55
2018-08-10T03:41:47.757Z,55.1
2018-08-10T03:42:37.782Z,55.1
2018-08-10T03:43:28.129Z,55
2018-08-10T03:44:18.047Z,55
2018-08-10T03:45:08.180Z,55
2018-08-10T03:45:58.539Z,55
2018-08-10T03:46:49.002Z,55
2018-08-10T03:47:39.047Z,55
2018-08-10T03:48:28.423Z,54.9
2018-08-10T03:49:18.210Z,54.9
2018-08-10T03:50:08.385Z,54.9
2018-08-10T03:50:58.139Z,54.9
2018-08-10T03:51:48.777Z,54.9
2018-08-10T03:53:44.055Z,54.9
2018-08-10T03:54:19.199Z,54.9
2018-08-10T03:55:09.246Z,54.9
2018-08-10T03:55:59.551Z,54.9
2018-08-10T03:56:49.016Z,54.9
2018-08-10T03:57:38.936Z,54.9
2018-08-10T03:58:28.966Z,54.9
2018-08-10T03:59:18.748Z,54.9
2018-08-10T04:00:09.512Z,54.9
2018-08-10T04:00:59.430Z,54.9
2018-08-10T04:01:49.291Z,54.9
2018-08-10T04:02:39.366Z,54.8
2018-08-10T04:03:29.127Z,54.9
2018-08-10T04:04:19.436Z,54.9
2018-08-10T04:05:09.723Z,54.8
2018-08-10T04:06:00.383Z,54.8
2018-08-10T04:06:50.163Z,54.8
2018-08-10T04:07:40.493Z,54.8
2018-08-10T04:08:30.271Z,54.8
2018-08-10T04:09:20.627Z,54.8
2018-08-10T04:10:10.144Z,54.8
2018-08-10T04:11:00.173Z,54.8
2018-08-10T04:11:50.849Z,54.8
2018-08-10T04:12:40.145Z,54.8
2018-08-10T04:13:45.335Z,54.8
2018-08-10T04:14:21.231Z,54.8
2018-08-10T04:15:10.589Z,54.8
2018-08-10T04:16:01.109Z,54.8
2018-08-10T04:16:51.132Z,54.8
2018-08-10T04:17:41.000Z,54.8
2018-08-10T04:18:31.018Z,54.8
2018-08-10T04:19:21.155Z,54.7
2018-08-10T04:20:10.599Z,54.7
2018-08-10T04:21:01.548Z,54.7
2018-08-10T04:21:51.308Z,54.7
2018-08-10T04:22:41.741Z,54.7
2018-08-10T04:23:31.699Z,54.7
2018-08-10T04:24:21.796Z,54.7
2018-08-10T04:25:11.611Z,54.7
2018-08-10T04:26:01.656Z,54.7
2018-08-10T04:26:51.992Z,54.6
2018-08-10T04:27:42.083Z,54.6
2018-08-10T04:28:31.558Z,54.6
2018-08-10T04:29:21.429Z,54.6
2018-08-10T04:30:11.017Z,54.6
2018-08-10T05:06:57.137Z,54.3
2018-08-10T05:07:46.885Z,54.3
2018-08-10T05:08:37.260Z,54.3
2018-08-10T05:09:27.600Z,54.3
2018-08-10T05:10:17.346Z,54.3
2018-08-10T05:11:06.631Z,54.3
2018-08-10T05:11:57.820Z,54.3
2018-08-10T05:12:47.622Z,54.3
2018-08-10T05:13:37.310Z,54.3
2018-08-10T05:14:27.668Z,54.3
2018-08-10T05:15:17.740Z,54.3
2018-08-10T05:16:07.812Z,54.3
2018-08-10T05:16:57.870Z,54.3
2018-08-10T05:17:46.773Z,54.2
2018-08-10T05:18:38.335Z,54.2
2018-08-10T05:19:28.051Z,54.2
2018-08-10T05:20:18.413Z,54.2
2018-08-10T05:21:08.461Z,54.2
2018-08-10T05:21:58.254Z,54.2
2018-08-10T05:22:48.322Z,54.2
2018-08-10T05:23:38.097Z,54.2
2018-08-10T05:24:28.189Z,54.1
2018-08-10T05:25:18.213Z,54.1
2018-08-10T05:26:08.584Z,54.1
2018-08-10T05:26:57.792Z,54.1
2018-08-10T05:27:48.997Z,54.1
2018-08-10T05:28:39.062Z,54.1
2018-08-10T05:29:28.817Z,54.1
2018-08-10T05:30:19.211Z,54.1
2018-08-10T05:31:08.686Z,54.1
2018-08-10T05:31:59.345Z,54.1
2018-08-10T05:32:49.383Z,54.1
2018-08-10T05:33:39.438Z,54.1
2018-08-10T05:34:28.652Z,54.1
2018-08-10T05:35:19.268Z,54.1
2018-08-10T05:36:08.606Z,54.1
2018-08-10T05:36:59.128Z,54.1
2018-08-10T05:37:49.528Z,54.1
2018-08-10T05:38:39.839Z,54
2018-08-10T05:39:29.346Z,54
2018-08-10T05:40:19.378Z,54.1
2018-08-10T05:41:09.448Z,54
2018-08-10T05:42:00.082Z,54
2018-08-10T05:42:49.892Z,54
2018-08-10T05:43:39.391Z,54
2018-08-10T05:44:30.005Z,54
2018-08-10T05:45:18.910Z,54
2018-08-10T05:46:09.833Z,54
2018-08-10T05:47:01.269Z,54
2018-08-10T05:47:49.409Z,53.9
2018-08-10T05:48:40.344Z,53.9
2018-08-10T05:49:30.078Z,53.9
2018-08-10T05:50:20.434Z,53.9
2018-08-10T05:51:10.540Z,53.9
2018-08-10T05:52:00.667Z,53.9
2018-08-10T05:52:51.009Z,53.9
2018-08-10T05:53:40.736Z,53.9
2018-08-10T05:54:31.038Z,53.9
2018-08-10T05:55:20.857Z,53.9
2018-08-10T05:56:11.184Z,53.9
2018-08-10T05:57:00.706Z,53.9
2018-08-10T05:57:50.760Z,53.9
2018-08-10T05:58:41.134Z,53.9
2018-08-10T05:59:30.891Z,53.9
2018-08-10T06:00:21.533Z,53.9
2018-08-10T06:01:11.312Z,53.9
2018-08-10T06:02:01.616Z,53.9
2018-08-10T06:02:51.726Z,53.9
2018-08-10T06:03:42.372Z,53.9
2018-08-10T06:04:31.574Z,53.8
2018-08-10T06:05:21.336Z,53.8
2018-08-10T06:06:11.961Z,53.8
2018-08-10T06:07:02.025Z,53.8
2018-08-10T06:07:51.818Z,53.8
2018-08-10T06:08:41.614Z,53.8
2018-08-10T06:09:32.231Z,53.8
2018-08-10T06:10:22.319Z,53.8
2018-08-10T06:11:11.781Z,53.8
2018-08-10T06:12:02.411Z,53.8
2018-08-10T06:12:52.504Z,53.8
2018-08-10T06:13:42.524Z,53.8
2018-08-10T06:14:32.315Z,53.8
2018-08-10T06:15:22.773Z,53.8
2018-08-10T06:16:12.157Z,53.8
2018-08-10T06:17:02.243Z,53.8
2018-08-10T06:17:52.858Z,53.7
2018-08-10T06:18:42.622Z,53.8
2018-08-10T06:19:34.209Z,53.7
2018-08-10T06:20:22.773Z,53.7
2018-08-10T06:21:12.546Z,53.7
2018-08-10T06:22:02.948Z,53.7
2018-08-10T06:22:53.620Z,53.7
2018-08-10T06:23:42.769Z,53.7
2018-08-10T06:24:32.567Z,53.7
2018-08-10T06:25:22.647Z,53.7
2018-08-10T06:26:13.530Z,53.6
2018-08-10T06:27:03.021Z,53.6
2018-08-10T06:27:54.602Z,53.6
2018-08-10T06:28:43.128Z,53.6
2018-08-10T06:29:33.786Z,53.6
2018-08-10T06:30:22.223Z,53.6
2018-08-10T06:31:13.073Z,53.6
2018-08-10T06:32:02.556Z,53.6
2018-08-10T06:32:53.744Z,53.6
2018-08-10T06:33:44.657Z,53.6
2018-08-10T06:34:33.892Z,53.6
2018-08-10T06:35:24.234Z,53.6
2018-08-10T06:36:14.003Z,53.6
2018-08-10T06:37:04.359Z,53.6
2018-08-10T06:37:53.611Z,53.6
2018-08-10T06:38:44.486Z,53.6
2018-08-10T06:39:33.986Z,53.6
2018-08-10T06:40:24.340Z,53.6
2018-08-10T06:41:14.115Z,53.6
2018-08-10T06:42:04.186Z,53.5
2018-08-10T06:42:54.545Z,53.4
2018-08-10T06:43:44.867Z,53.3
2018-08-10T06:44:34.970Z,53.1
2018-08-10T06:45:25.079Z,53.1
2018-08-10T06:46:13.916Z,53.1
2018-08-10T06:47:04.567Z,53
2018-08-10T06:47:54.950Z,53
2018-08-10T06:48:45.338Z,53
2018-08-10T06:49:34.484Z,53
2018-08-10T06:50:25.432Z,52.9
2018-08-10T06:51:16.016Z,52.9
2018-08-10T06:52:05.540Z,52.9
2018-08-10T06:52:54.712Z,52.9
2018-08-10T06:53:45.678Z,52.9
2018-08-10T06:54:35.680Z,52.9
2018-08-10T06:55:25.777Z,52.9
2018-08-10T06:56:16.640Z,52.9
2018-08-10T06:57:05.932Z,52.9
2018-08-10T06:57:55.402Z,52.9
2018-08-10T06:58:45.257Z,52.9
2018-08-10T06:59:35.325Z,52.9
2018-08-10T07:00:26.214Z,52.8
2018-08-10T07:01:15.961Z,52.8
2018-08-10T07:02:06.271Z,52.8
2018-08-10T07:02:56.102Z,52.8
2018-08-10T07:03:46.441Z,52.8
2018-08-10T07:04:35.638Z,52.8
2018-08-10T07:05:26.611Z,52.8
2018-08-10T07:06:16.386Z,52.8
2018-08-10T07:07:06.151Z,52.7
2018-08-10T07:07:57.202Z,52.7
2018-08-10T07:08:46.290Z,52.7
2018-08-10T07:09:36.909Z,52.7
2018-08-10T07:10:26.690Z,52.7
2018-08-10T07:11:17.089Z,52.7
2018-08-10T07:12:06.515Z,52.6
2018-08-10T07:12:56.521Z,52.6
2018-08-10T07:13:46.816Z,52.6
2018-08-10T07:14:37.313Z,52.6
2018-08-10T07:15:27.360Z,52.6
2018-08-10T07:16:17.445Z,52.6
2018-08-10T07:17:06.688Z,52.6
2018-08-10T07:17:56.679Z,52.6
2018-08-10T07:18:47.679Z,52.6
2018-08-10T07:19:37.115Z,52.5
2018-08-10T07:20:27.747Z,52.5
2018-08-10T07:21:17.227Z,52.5
2018-08-10T07:22:07.607Z,52.5
2018-08-10T07:22:57.937Z,52.5
2018-08-10T07:23:48.024Z,52.5
2018-08-10T07:24:37.504Z,52.5
2018-08-10T07:25:27.843Z,52.5
2018-08-10T07:26:18.207Z,52.6
2018-08-10T07:27:08.351Z,52.6
2018-08-10T07:27:58.104Z,52.6
2018-08-10T07:28:48.123Z,52.6
2018-08-10T07:29:38.414Z,52.7
2018-08-10T07:30:28.514Z,52.7
2018-08-10T07:31:18.269Z,52.7
2018-08-10T07:32:08.334Z,52.8
2018-08-10T07:32:58.217Z,52.8
2018-08-10T07:33:48.464Z,52.8
2018-08-10T07:34:38.865Z,52.8
2018-08-10T07:35:28.877Z,52.9
2018-08-10T07:36:18.989Z,52.9
2018-08-10T07:37:08.729Z,52.9
2018-08-10T07:37:58.791Z,52.9
2018-08-10T07:38:48.871Z,52.9
2018-08-10T07:39:38.663Z,53
2018-08-10T07:40:29.046Z,53
2018-08-10T07:41:19.084Z,53.1
2018-08-10T07:42:08.556Z,53.1
2018-08-10T07:42:59.244Z,53.1
2018-08-10T07:43:49.558Z,53.1
2018-08-10T07:44:39.414Z,53.2
2018-08-10T07:45:28.936Z,53.2
2018-08-10T07:46:19.546Z,53.3
2018-08-10T07:47:09.545Z,53.3
2018-08-10T07:47:59.869Z,53.3
2018-08-10T07:48:49.664Z,53.3
2018-08-10T07:49:40.031Z,53.4
2018-08-10T07:50:29.826Z,53.4
2018-08-10T07:51:19.883Z,53.4
2018-08-10T07:52:10.056Z,53.5
2018-08-10T07:52:59.338Z,53.5
2018-08-10T07:53:50.329Z,53.6
2018-08-10T07:54:40.413Z,53.6
2018-08-10T07:55:30.001Z,53.6
2018-08-10T07:56:19.737Z,53.7
2018-08-10T07:57:10.031Z,53.8
2018-08-10T07:58:00.361Z,53.8
2018-08-10T07:58:50.695Z,53.8
2018-08-10T07:59:40.216Z,53.8
2018-08-10T08:00:30.559Z,53.9
2018-08-10T08:01:20.979Z,53.9
2018-08-10T08:02:10.405Z,54
2018-08-10T08:03:00.760Z,54
2018-08-10T08:03:50.852Z,54.1
2018-08-10T08:04:40.612Z,54.1
2018-08-10T08:05:30.994Z,54.1
2018-08-10T08:06:21.362Z,54.2
2018-08-10T08:07:16.050Z,54.3
2018-08-10T08:08:01.628Z,54.3
2018-08-10T08:08:51.185Z,54.3
2018-08-10T08:09:41.548Z,54.4
2018-08-10T08:10:31.482Z,54.4
2018-08-10T08:11:21.395Z,54.4
2018-08-10T08:12:11.757Z,54.5
2018-08-10T08:13:01.578Z,54.5
2018-08-10T08:13:52.653Z,54.6
2018-08-10T08:14:41.127Z,54.6
2018-08-10T08:15:31.454Z,54.6
2018-08-10T08:16:21.234Z,54.7
2018-08-10T08:17:12.173Z,54.8
2018-08-10T08:18:01.694Z,54.8
2018-08-10T08:18:51.431Z,54.9
2018-08-10T08:19:43.276Z,54.9
2018-08-10T08:20:32.152Z,54.9
2018-08-10T08:21:22.188Z,55
2018-08-10T08:22:12.609Z,55.1
2018-08-10T08:23:02.063Z,55.1
2018-08-10T08:23:52.199Z,55.2
2018-08-10T08:24:42.164Z,55.2
2018-08-10T08:25:32.337Z,55.3
2018-08-10T08:26:22.937Z,55.3
2018-08-10T08:27:13.008Z,55.4
2018-08-10T08:28:02.777Z,55.4
2018-08-10T08:28:52.769Z,55.4
2018-08-10T08:29:42.874Z,55.5
2018-08-10T08:30:32.940Z,55.5
2018-08-10T08:31:22.413Z,55.6
2018-08-10T08:32:12.241Z,55.6
2018-08-10T08:33:03.373Z,55.7
2018-08-10T08:33:53.490Z,55.8
2018-08-10T08:34:44.743Z,55.8
2018-08-10T08:35:31.851Z,55.8
2018-08-10T08:36:23.394Z,55.9
2018-08-10T08:37:13.238Z,55.9
2018-08-10T08:38:03.819Z,55.9
2018-08-10T08:38:53.553Z,56
2018-08-10T08:39:43.630Z,56.1
2018-08-10T08:40:33.693Z,56.1
2018-08-10T08:41:23.178Z,56.2
2018-08-10T08:42:13.794Z,56.2
2018-08-10T08:43:03.925Z,56.3
2018-08-10T08:43:53.930Z,56.3
2018-08-10T08:44:43.766Z,56.3
2018-08-10T08:45:34.060Z,56.4
2018-08-10T08:46:26.397Z,56.4
2018-08-10T08:47:14.206Z,56.5
2018-08-10T08:48:04.280Z,56.5
2018-08-10T08:48:54.067Z,56.6
2018-08-10T08:49:43.923Z,56.6
2018-08-10T08:50:33.891Z,56.6
2018-08-10T08:51:24.819Z,56.7
2018-08-10T08:52:14.900Z,56.8
2018-08-10T08:53:04.685Z,56.8
2018-08-10T08:53:54.997Z,56.8
2018-08-10T08:54:45.188Z,56.8
2018-08-10T08:55:35.176Z,56.8
2018-08-10T08:56:24.636Z,56.8
2018-08-10T08:57:15.992Z,56.8
2018-08-10T08:58:05.054Z,56.9
2018-08-10T08:58:55.123Z,56.9
2018-08-10T08:59:45.175Z,56.9
2018-08-10T09:00:35.256Z,56.9
2018-08-10T09:01:25.050Z,56.9
2018-08-10T09:02:15.362Z,57
2018-08-10T09:03:05.707Z,56.9
2018-08-10T09:03:55.511Z,56.9
2018-08-10T09:21:12.364Z,57.1
2018-08-10T09:22:02.641Z,57.2
2018-08-10T09:22:52.210Z,57.2
2018-08-10T09:23:42.513Z,57.2
2018-08-10T09:24:32.806Z,57.3
2018-08-10T09:25:23.164Z,57.2
2018-08-10T09:26:12.600Z,57.2
2018-08-10T09:27:03.471Z,57.2
2018-08-10T09:27:53.143Z,57.3
2018-08-10T09:28:43.160Z,57.3
2018-08-10T09:29:33.461Z,57.3
2018-08-10T09:30:23.572Z,57.3
2018-08-10T09:31:13.638Z,57.3
2018-08-10T09:32:03.429Z,57.3
2018-08-10T09:32:53.323Z,57.3
2018-08-10T09:33:43.343Z,57.3
2018-08-10T09:34:33.939Z,57.3
2018-08-10T09:35:23.676Z,57.3
2018-08-10T09:36:14.049Z,57.3
2018-08-10T09:37:04.087Z,57.3
2018-08-10T09:37:54.165Z,57.3
2018-08-10T09:38:44.041Z,57.3
2018-08-10T09:39:33.961Z,57.3
2018-08-10T09:40:24.232Z,57.3
2018-08-10T09:41:13.830Z,57.3
2018-08-10T09:42:04.496Z,57.3
2018-08-10T09:42:54.088Z,57.3
2018-08-10T09:43:44.718Z,57.3
2018-08-10T09:44:33.541Z,57.3
2018-08-10T09:45:24.344Z,57.3
2018-08-10T09:46:14.525Z,57.3
2018-08-10T09:47:04.039Z,57.2
2018-08-10T09:47:54.451Z,57.2
2018-08-10T09:48:44.722Z,57.2
2018-08-10T09:49:34.809Z,57.2
2018-08-10T09:50:24.855Z,57.1
2018-08-10T09:51:15.173Z,57.2
2018-08-10T09:52:04.449Z,57.2
2018-08-10T09:52:55.335Z,57.2
2018-08-10T09:53:45.353Z,57.3
2018-08-10T09:54:34.937Z,57.3
2018-08-10T09:55:25.504Z,57.3
2018-08-10T09:56:14.716Z,57.3
2018-08-10T09:57:05.336Z,57.3
2018-08-10T09:57:55.726Z,57.4
2018-08-10T09:58:45.177Z,57.4
2018-08-10T09:59:35.267Z,57.4
2018-08-10T10:00:25.617Z,57.4
2018-08-10T10:01:15.718Z,57.5
2018-08-10T10:02:06.076Z,57.6
2018-08-10T10:02:55.827Z,57.6
2018-08-10T10:03:46.166Z,57.6
2018-08-10T10:04:35.665Z,57.7
2018-08-10T10:05:26.333Z,57.7
2018-08-10T10:07:06.438Z,57.8
2018-08-10T10:07:55.934Z,57.8
2018-08-10T10:08:46.277Z,57.9
2018-08-10T10:09:36.453Z,57.9
2018-08-10T10:10:26.145Z,58
2018-08-10T10:11:16.746Z,58.1
2018-08-10T10:12:06.585Z,58.1
2018-08-10T10:12:56.887Z,58.1
2018-08-10T10:13:46.942Z,58.2
2018-08-10T10:14:37.112Z,58.3
2018-08-10T10:15:26.601Z,58.3
2018-08-10T10:16:17.228Z,58.3
2018-08-10T10:17:07.018Z,58.4
2018-08-10T10:17:57.629Z,58.4
2018-08-10T10:18:47.169Z,58.4
2018-08-10T10:19:36.347Z,58.5
2018-08-10T10:21:17.658Z,58.6
2018-08-10T10:22:07.436Z,58.7
2018-08-10T10:22:57.810Z,58.7
2018-08-10T10:23:47.239Z,58.8
2018-08-10T10:24:37.581Z,58.8
2018-08-10T10:25:27.357Z,58.9
2018-08-10T10:26:17.720Z,58.9
2018-08-10T10:27:08.262Z,58.9
2018-08-10T10:27:57.129Z,59
2018-08-10T10:28:47.626Z,59
2018-08-10T10:29:38.292Z,59.1
2018-08-10T10:30:28.077Z,59.1
2018-08-10T10:31:18.140Z,59.2
2018-08-10T10:32:07.892Z,59.3
2018-08-10T10:32:58.028Z,59.3
2018-08-10T10:33:48.290Z,59.4
2018-08-10T10:34:38.665Z,59.4
2018-08-10T10:35:28.684Z,59.4
2018-08-10T10:36:18.741Z,59.5
2018-08-10T10:37:08.773Z,59.5
2018-08-10T10:37:58.879Z,59.6
2018-08-10T10:38:47.562Z,59.6
2018-08-10T10:39:38.974Z,59.7
2018-08-10T10:40:28.779Z,59.8
2018-08-10T10:41:18.948Z,59.8
2018-08-10T10:42:08.887Z,59.8
2018-08-10T10:42:59.244Z,59.9
2018-08-10T10:43:49.064Z,59.9
2018-08-10T10:44:38.266Z,60
2018-08-10T10:45:29.194Z,60
2018-08-10T10:46:19.519Z,60.1
2018-08-10T10:47:09.578Z,60.1
2018-08-10T10:47:59.081Z,60.1
2018-08-10T10:48:49.436Z,60.2
2018-08-10T10:49:38.645Z,60.3
2018-08-10T10:50:29.566Z,60.3
2018-08-10T10:51:19.323Z,60.3
2018-08-10T10:52:09.690Z,60.4
2018-08-10T10:52:59.470Z,60.4
2018-08-10T10:53:50.065Z,60.5
2018-08-10T10:54:39.590Z,60.5
2018-08-10T10:55:30.177Z,60.6
2018-08-10T10:56:20.052Z,60.6
2018-08-10T10:57:10.080Z,60.7
2018-08-10T10:58:00.408Z,60.8
2018-08-10T10:58:50.221Z,60.8
2018-08-10T10:59:39.995Z,60.8
2018-08-10T11:00:29.789Z,60.9
2018-08-10T11:01:20.652Z,60.9
2018-08-10T11:02:10.452Z,60.9
2018-08-10T11:03:00.802Z,61
2018-08-10T11:03:50.294Z,61.1
2018-08-10T11:04:40.900Z,61.1
2018-08-10T11:05:30.508Z,61.1
2018-08-10T11:06:21.591Z,61.2
2018-08-10T11:07:11.099Z,61.3
2018-08-10T11:08:01.183Z,61.3
2018-08-10T11:08:50.946Z,61.3
2018-08-10T11:09:41.286Z,61.4
2018-08-10T11:10:31.083Z,61.4
2018-08-10T11:11:21.424Z,61.5
2018-08-10T11:12:11.501Z,61.5
2018-08-10T11:13:01.304Z,61.6
2018-08-10T11:13:51.358Z,61.6
2018-08-10T11:14:41.151Z,61.6
2018-08-10T11:15:31.790Z,61.7
2018-08-10T11:16:21.256Z,61.7
2018-08-10T11:17:11.618Z,61.8
2018-08-10T11:18:02.469Z,61.8
2018-08-10T11:18:52.085Z,61.8
2018-08-10T11:19:41.283Z,61.8
2018-08-10T11:20:31.937Z,61.9
2018-08-10T11:21:21.978Z,61.9
2018-08-10T11:22:12.083Z,61.9
2018-08-10T11:23:01.826Z,62
2018-08-10T11:23:52.215Z,62.1
2018-08-10T11:24:42.252Z,62.1
2018-08-10T11:25:32.981Z,62.1
2018-08-10T11:26:22.708Z,62.2
2018-08-10T11:27:11.879Z,62.2
2018-08-10T11:28:02.794Z,62.3
2018-08-10T11:28:52.285Z,62.3
2018-08-10T11:29:42.627Z,62.3
2018-08-10T11:30:33.004Z,62.4
2018-08-10T11:31:22.761Z,62.4
2018-08-10T11:32:12.946Z,62.4
2018-08-10T11:33:03.218Z,62.4
2018-08-10T11:33:52.963Z,62.5
2018-08-10T11:34:43.305Z,62.5
2018-08-10T11:35:32.540Z,62.6
2018-08-10T11:36:22.896Z,62.6
2018-08-10T11:37:13.508Z,62.6
2018-08-10T11:38:03.568Z,62.7
2018-08-10T11:38:53.363Z,62.8
2018-08-10T11:39:43.170Z,62.8
2018-08-10T11:40:33.035Z,62.8
2018-08-10T11:41:23.692Z,62.8
2018-08-10T11:42:13.679Z,62.9
2018-08-10T11:43:03.977Z,62.9
2018-08-10T11:43:53.735Z,62.9
2018-08-10T11:44:44.088Z,63
2018-08-10T11:45:33.907Z,63
2018-08-10T11:46:24.190Z,63.1
2018-08-10T11:47:13.985Z,63.1
2018-08-10T11:48:04.342Z,63.1
2018-08-10T11:48:54.145Z,63.2
2018-08-10T11:49:44.208Z,63.2
2018-08-10T11:50:33.991Z,63.3
2018-08-10T11:51:24.326Z,63.3
2018-08-10T11:52:14.642Z,63.3
2018-08-10T11:53:04.170Z,63.3
2018-08-10T11:53:54.538Z,63.4
2018-08-10T11:54:44.585Z,63.4
2018-08-10T11:55:34.403Z,63.4
2018-08-10T11:56:24.815Z,63.4
2018-08-10T11:57:14.582Z,63.5
2018-08-10T11:58:04.905Z,63.5
2018-08-10T11:58:55.198Z,63.6
2018-08-10T11:59:44.998Z,63.6
2018-08-10T12:00:34.833Z,63.6
2018-08-10T12:01:25.105Z,63.7
2018-08-10T12:02:15.170Z,63.7
2018-08-10T12:03:05.623Z,63.8
2018-08-10T12:03:55.020Z,63.8
2018-08-10T12:04:45.072Z,63.8
2018-08-10T12:05:35.459Z,63.8
2018-08-10T12:06:25.521Z,63.9
2018-08-10T12:07:15.607Z,63.9
2018-08-10T12:08:05.931Z,63.9
2018-08-10T12:08:55.997Z,63.9
2018-08-10T12:09:45.747Z,64
2018-08-10T12:10:36.112Z,64
2018-08-10T12:11:25.339Z,64.1
2018-08-10T12:12:16.198Z,64.1
2018-08-10T12:13:06.019Z,64.1
2018-08-10T12:13:56.338Z,64.1
2018-08-10T12:14:45.905Z,64.1
2018-08-10T12:15:36.475Z,64.2
2018-08-10T12:16:26.249Z,64.2
2018-08-10T12:17:15.755Z,64.3
2018-08-10T12:18:06.422Z,64.3
2018-08-10T12:18:56.545Z,64.3
2018-08-10T12:19:46.318Z,64.3
2018-08-10T12:20:36.901Z,64.4
2018-08-10T12:21:26.109Z,64.4
2018-08-10T12:22:17.120Z,64.4
2018-08-10T12:23:07.085Z,64.4
2018-08-10T12:23:56.845Z,64.4